Peotone Weather
Station Historical Data
 
Daily Summary for October 30, 2014 Units:  English    Metric   Both
« Previous Day
Next Day »
Daily Weekly Monthly Yearly Custom
  Current: High: Low: Average:
Temperature: 51.5 °F 51.6 °F 30.9 °F 37.1 °F
Dew Point: 39.3 °F 40.6 °F 28.6 °F 33 °F
Humidity: 63% 94% 63% 86%
Wind Speed: 5.8mph 12.6mph 0.0mph 1.5mph
Wind Gust: 11.5mph 16.1mph - -
WindSW - - WSW
Pressure: 30.14 in 30.18 in 30.14 in -
Precipitation: 0.00 in      
Historical Graphs
 
 
Tabular Data for October 30, 2014
Time Temperature Dew Point Pressure Wind Wind Speed Wind Gust Humidity Rainfall Rate (Hourly) solar Conditions
00:03 37.7 °F 33.0 °F 30.16 in Calm     83% 0.00 in 0.00 W/m2
00:08 37.6 °F 32.9 °F 30.16 in WNW 2.3 mph 2.3 mph 83% 0.00 in 0.00 W/m2
00:13 37.4 °F 33.0 °F 30.16 in Calm   1.1 mph 84% 0.00 in 0.00 W/m2
00:18 37.3 °F 32.9 °F 30.16 in Calm     84% 0.00 in 0.00 W/m2
00:23 37.1 °F 32.7 °F 30.16 in Calm   1.1 mph 84% 0.00 in 0.00 W/m2
00:28 37.0 °F 32.9 °F 30.16 in Calm     85% 0.00 in 0.00 W/m2
00:33 36.9 °F 32.8 °F 30.16 in WNW 1.1 mph 1.1 mph 85% 0.00 in 0.00 W/m2
00:38 36.8 °F 32.7 °F 30.16 in Calm   2.3 mph 85% 0.00 in 0.00 W/m2
00:43 36.6 °F 32.5 °F 30.16 in WNW 2.3 mph 2.3 mph 85% 0.00 in 0.00 W/m2
00:48 36.5 °F 32.4 °F 30.16 in Calm   1.1 mph 85% 0.00 in 0.00 W/m2
00:54 36.4 °F 32.6 °F 30.16 in Calm   1.1 mph 86% 0.00 in 0.00 W/m2
00:59 36.3 °F 32.5 °F 30.16 in WNW 1.1 mph 2.3 mph 86% 0.00 in 0.00 W/m2
01:04 36.2 °F 32.4 °F 30.16 in WNW 1.1 mph 2.3 mph 86% 0.00 in 0.00 W/m2
01:09 36.2 °F 32.4 °F 30.16 in WNW 1.1 mph 2.3 mph 86% 0.00 in 0.00 W/m2
01:14 36.1 °F 32.3 °F 30.16 in Calm   1.1 mph 86% 0.00 in 0.00 W/m2
01:19 36.0 °F 32.2 °F 30.16 in WNW 1.1 mph 2.3 mph 86% 0.00 in 0.00 W/m2
01:24 35.9 °F 32.1 °F 30.16 in Calm     86% 0.00 in 0.00 W/m2
01:29 35.8 °F 32.0 °F 30.16 in Calm   2.3 mph 86% 0.00 in 0.00 W/m2
01:34 35.7 °F 32.2 °F 30.16 in Calm   1.1 mph 87% 0.00 in 0.00 W/m2
01:39 35.6 °F 32.1 °F 30.16 in Calm   1.1 mph 87% 0.00 in 0.00 W/m2
01:44 35.5 °F 32.0 °F 30.16 in Calm     87% 0.00 in 0.00 W/m2
01:50 35.5 °F 32.0 °F 30.16 in Calm     87% 0.00 in 0.00 W/m2
01:55 35.4 °F 32.2 °F 30.16 in Calm     88% 0.00 in 0.00 W/m2
02:00 35.3 °F 32.1 °F 30.16 in Calm     88% 0.00 in 0.00 W/m2
02:05 35.2 °F 32.0 °F 30.16 in Calm     88% 0.00 in 0.00 W/m2
02:10 35.1 °F 31.6 °F 30.16 in Calm     87% 0.00 in 0.00 W/m2
02:15 35.0 °F 31.5 °F 30.16 in Calm     87% 0.00 in 0.00 W/m2
02:20 34.9 °F 31.4 °F 30.16 in Calm     87% 0.00 in 0.00 W/m2
02:25 34.8 °F 31.6 °F 30.16 in Calm     88% 0.00 in 0.00 W/m2
02:30 34.6 °F 31.4 °F 30.16 in Calm     88% 0.00 in 0.00 W/m2
02:35 34.5 °F 31.3 °F 30.17 in Calm     88% 0.00 in 0.00 W/m2
02:40 34.4 °F 31.2 °F 30.17 in Calm     88% 0.00 in 0.00 W/m2
02:45 34.3 °F 31.1 °F 30.16 in Calm     88% 0.00 in 0.00 W/m2
02:50 34.1 °F 30.9 °F 30.17 in Calm     88% 0.00 in 0.00 W/m2
02:55 34.0 °F 30.8 °F 30.17 in Calm     88% 0.00 in 0.00 W/m2
03:00 33.9 °F 30.7 °F 30.17 in Calm     88% 0.00 in 0.00 W/m2
03:05 33.8 °F 30.6 °F 30.17 in Calm     88% 0.00 in 0.00 W/m2
03:10 33.7 °F 30.5 °F 30.17 in Calm     88% 0.00 in 0.00 W/m2
03:16 33.6 °F 30.4 °F 30.17 in Calm     88% 0.00 in 0.00 W/m2
03:21 33.5 °F 30.3 °F 30.17 in Calm   1.1 mph 88% 0.00 in 0.00 W/m2
03:26 33.4 °F 30.2 °F 30.17 in WNW 2.3 mph 3.4 mph 88% 0.00 in 0.00 W/m2
03:31 33.3 °F 30.4 °F 30.16 in Calm   2.3 mph 89% 0.00 in 0.00 W/m2
03:36 33.3 °F 30.4 °F 30.16 in Calm     89% 0.00 in 0.00 W/m2
03:41 33.3 °F 30.4 °F 30.16 in Calm   1.1 mph 89% 0.00 in 0.00 W/m2
03:46 33.3 °F 30.4 °F 30.16 in Calm     89% 0.00 in 0.00 W/m2
03:51 33.3 °F 30.4 °F 30.17 in Calm   1.1 mph 89% 0.00 in 0.00 W/m2
03:56 33.2 °F 30.3 °F 30.17 in Calm   1.1 mph 89% 0.00 in 0.00 W/m2
04:01 33.1 °F 30.2 °F 30.17 in Calm   2.3 mph 89% 0.00 in 0.00 W/m2
04:06 33.1 °F 30.2 °F 30.17 in Calm     89% 0.00 in 0.00 W/m2
04:11 33.1 °F 30.5 °F 30.17 in WNW 1.1 mph 2.3 mph 90% 0.00 in 0.00 W/m2
04:16 33.0 °F 30.4 °F 30.17 in WNW 1.1 mph 1.1 mph 90% 0.00 in 0.00 W/m2
04:21 33.0 °F 30.4 °F 30.17 in WNW 1.1 mph 1.1 mph 90% 0.00 in 0.00 W/m2
04:26 33.0 °F 30.4 °F 30.17 in Calm     90% 0.00 in 0.00 W/m2
04:31 33.0 °F 30.4 °F 30.16 in Calm     90% 0.00 in 0.00 W/m2
04:36 33.0 °F 30.4 °F 30.16 in Calm     90% 0.00 in 0.00 W/m2
04:41 33.0 °F 30.4 °F 30.17 in Calm     90% 0.00 in 0.00 W/m2
04:46 33.0 °F 30.4 °F 30.17 in Calm     90% 0.00 in 0.00 W/m2
04:52 33.0 °F 30.4 °F 30.17 in Calm     90% 0.00 in 0.00 W/m2
04:57 33.0 °F 30.4 °F 30.16 in Calm     90% 0.00 in 0.00 W/m2
05:02 33.0 °F 30.4 °F 30.16 in Calm     90% 0.00 in 0.00 W/m2
05:07 33.0 °F 30.4 °F 30.16 in Calm     90% 0.00 in 0.00 W/m2
05:12 32.9 °F 30.3 °F 30.16 in Calm     90% 0.00 in 0.00 W/m2
05:17 32.8 °F 30.2 °F 30.17 in Calm     90% 0.00 in 0.00 W/m2
05:22 32.7 °F 30.1 °F 30.17 in Calm     90% 0.00 in 0.00 W/m2
05:27 32.6 °F 30.0 °F 30.17 in Calm     90% 0.00 in 0.00 W/m2
05:32 32.5 °F 29.9 °F 30.17 in Calm     90% 0.00 in 0.00 W/m2
05:37 32.3 °F 29.7 °F 30.17 in Calm     90% 0.00 in 0.00 W/m2
05:42 32.1 °F 29.5 °F 30.17 in Calm     90% 0.00 in 0.00 W/m2
05:47 32.0 °F 29.4 °F 30.17 in Calm     90% 0.00 in 0.00 W/m2
05:53 32.0 °F 29.7 °F 30.17 in Calm     91% 0.00 in 0.00 W/m2
05:58 31.8 °F 29.5 °F 30.17 in Calm     91% 0.00 in 0.00 W/m2
06:03 31.7 °F 29.1 °F 30.17 in Calm     90% 0.00 in 0.00 W/m2
06:08 31.6 °F 29.3 °F 30.17 in Calm     91% 0.00 in 0.00 W/m2
06:13 31.5 °F 29.2 °F 30.16 in Calm     91% 0.00 in 0.00 W/m2
06:18 31.4 °F 29.1 °F 30.16 in Calm     91% 0.00 in 0.00 W/m2
06:23 31.4 °F 29.1 °F 30.16 in Calm     91% 0.00 in 0.00 W/m2
06:28 31.3 °F 29.0 °F 30.16 in Calm     91% 0.00 in 0.00 W/m2
06:33 31.3 °F 29.0 °F 30.16 in Calm     91% 0.00 in 0.00 W/m2
06:38 31.2 °F 28.9 °F 30.17 in Calm     91% 0.00 in 0.00 W/m2
06:43 31.1 °F 28.8 °F 30.17 in Calm     91% 0.00 in 0.00 W/m2
06:48 31.1 °F 28.8 °F 30.17 in Calm     91% 0.00 in 0.00 W/m2
06:53 31.0 °F 28.7 °F 30.17 in Calm     91% 0.00 in 0.00 W/m2
06:59 31.0 °F 28.7 °F 30.17 in Calm   1.1 mph 91% 0.00 in 0.00 W/m2
07:04 31.0 °F 28.7 °F 30.17 in Calm     91% 0.00 in 0.00 W/m2
07:09 30.9 °F 28.6 °F 30.17 in Calm     91% 0.00 in 0.00 W/m2
07:14 30.9 °F 28.6 °F 30.17 in Calm     91% 0.00 in 0.00 W/m2
07:19 30.9 °F 28.6 °F 30.17 in Calm     91% 0.00 in 5.00 W/m2
07:24 30.9 °F 28.6 °F 30.17 in Calm     91% 0.00 in 5.00 W/m2
07:29 30.9 °F 28.9 °F 30.17 in Calm     92% 0.00 in 14.00 W/m2
07:34 31.0 °F 29.0 °F 30.17 in Calm     92% 0.00 in 19.00 W/m2
07:39 31.0 °F 29.0 °F 30.17 in Calm     92% 0.00 in 21.00 W/m2
07:44 31.2 °F 29.1 °F 30.17 in Calm     92% 0.00 in 21.00 W/m2
07:49 31.2 °F 29.1 °F 30.17 in Calm     92% 0.00 in 19.00 W/m2
07:54 31.3 °F 29.2 °F 30.17 in Calm   1.1 mph 92% 0.00 in 16.00 W/m2
08:00 31.4 °F 29.4 °F 30.17 in Calm   1.1 mph 92% 0.00 in 21.00 W/m2
08:05 31.4 °F 29.4 °F 30.17 in Calm   1.1 mph 92% 0.00 in 47.00 W/m2
08:10 31.9 °F 30.1 °F 30.17 in Calm   1.1 mph 93% 0.00 in 51.00 W/m2
08:15 32.9 °F 31.1 °F 30.17 in Calm   1.1 mph 93% 0.00 in 62.00 W/m2
08:20 33.9 °F 32.4 °F 30.17 in Calm     94% 0.00 in 67.00 W/m2
08:25 34.7 °F 32.9 °F 30.17 in Calm     93% 0.00 in 76.00 W/m2
08:30 35.2 °F 33.4 °F 30.17 in Calm     93% 0.00 in 102.00 W/m2
08:35 35.6 °F 33.8 °F 30.17 in Calm     93% 0.00 in 102.00 W/m2
08:40 36.1 °F 34.3 °F 30.18 in Calm     93% 0.00 in 135.00 W/m2
08:45 37.0 °F 35.2 °F 30.18 in Calm     93% 0.00 in 195.00 W/m2
08:50 38.4 °F 36.3 °F 30.18 in WNW 2.3 mph 3.4 mph 92% 0.00 in 155.00 W/m2
08:56 39.2 °F 36.8 °F 30.18 in WNW 1.1 mph 2.3 mph 91% 0.00 in 169.00 W/m2
09:01 39.7 °F 36.7 °F 30.18 in WNW 2.3 mph 4.6 mph 89% 0.00 in 105.00 W/m2
09:06 40.0 °F 36.7 °F 30.18 in West 3.4 mph 5.8 mph 88% 0.00 in 113.00 W/m2
09:11 40.3 °F 36.8 °F 30.18 in West 2.3 mph 4.6 mph 87% 0.00 in 113.00 W/m2
09:16 40.5 °F 36.9 °F 30.18 in West 3.4 mph 3.4 mph 87% 0.00 in 105.00 W/m2
09:21 40.7 °F 36.8 °F 30.18 in West 2.3 mph 4.6 mph 86% 0.00 in 111.00 W/m2
09:26 40.9 °F 37.0 °F 30.17 in Calm   4.6 mph 86% 0.00 in 111.00 W/m2
09:31 41.1 °F 37.2 °F 30.17 in West 3.4 mph 4.6 mph 86% 0.00 in 113.00 W/m2
09:36 41.4 °F 37.5 °F 30.17 in West 3.4 mph 6.9 mph 86% 0.00 in 105.00 W/m2
09:41 41.6 °F 37.7 °F 30.17 in WSW 2.3 mph 5.8 mph 86% 0.00 in 105.00 W/m2
09:46 41.8 °F 37.9 °F 30.17 in WSW 2.3 mph 4.6 mph 86% 0.00 in 118.00 W/m2
09:51 42.2 °F 38.3 °F 30.17 in WSW 1.1 mph 3.4 mph 86% 0.00 in 105.00 W/m2
09:56 42.4 °F 38.2 °F 30.17 in SW 5.8 mph 8.1 mph 85% 0.00 in 83.00 W/m2
10:01 42.6 °F 37.8 °F 30.17 in SW 1.1 mph 5.8 mph 83% 0.00 in 83.00 W/m2
10:06 43.1 °F 38.3 °F 30.16 in SW 1.1 mph 1.1 mph 83% 0.00 in 84.00 W/m2
10:11 43.5 °F 38.1 °F 30.16 in SW 3.4 mph 3.4 mph 81% 0.00 in 123.00 W/m2
10:16 43.9 °F 38.1 °F 30.16 in SW 2.3 mph 3.4 mph 80% 0.00 in 91.00 W/m2
10:21 44.4 °F 38.3 °F 30.16 in SW 6.9 mph 8.1 mph 79% 0.00 in 105.00 W/m2
10:26 44.9 °F 38.8 °F 30.16 in South 8.1 mph 8.1 mph 79% 0.00 in 98.00 W/m2
10:32 45.3 °F 38.9 °F 30.16 in WSW 5.8 mph 5.8 mph 78% 0.00 in 84.00 W/m2
10:37 45.5 °F 38.7 °F 30.16 in SW 4.6 mph 4.6 mph 77% 0.00 in 98.00 W/m2
10:42 46.4 °F 39.3 °F 30.16 in SSE 3.4 mph 5.8 mph 76% 0.00 in 135.00 W/m2
10:47 47.2 °F 39.0 °F 30.16 in South 5.8 mph 11.5 mph 73% 0.00 in 171.00 W/m2
10:52 47.1 °F 38.5 °F 30.16 in SW 4.6 mph 4.6 mph 72% 0.00 in 148.00 W/m2
10:57 47.0 °F 38.5 °F 30.16 in South 4.6 mph 6.9 mph 72% 0.00 in 125.00 W/m2
11:02 47.4 °F 39.2 °F 30.16 in SSW 2.3 mph 6.9 mph 73% 0.00 in 121.00 W/m2
11:07 47.6 °F 38.7 °F 30.16 in SW 9.2 mph 10.3 mph 71% 0.00 in 118.00 W/m2
11:12 47.7 °F 37.7 °F 30.16 in South 6.9 mph 11.5 mph 68% 0.00 in 111.00 W/m2
11:17 48.1 °F 38.4 °F 30.16 in SW 3.4 mph 10.3 mph 69% 0.00 in 102.00 W/m2
11:22 48.5 °F 38.1 °F 30.16 in SSE 12.6 mph 16.1 mph 67% 0.00 in 98.00 W/m2
11:27 48.9 °F 38.4 °F 30.16 in SW 4.6 mph 9.2 mph 67% 0.00 in 171.00 W/m2
11:32 49.4 °F 39.3 °F 30.16 in South 11.5 mph 11.5 mph 68% 0.00 in 237.00 W/m2
11:37 49.1 °F 38.2 °F 30.16 in WSW 8.1 mph 10.3 mph 66% 0.00 in 207.00 W/m2
11:42 48.9 °F 38.4 °F 30.15 in SSW 5.8 mph 6.9 mph 67% 0.00 in 169.00 W/m2
11:47 48.8 °F 38.7 °F 30.15 in SW 4.6 mph 6.9 mph 68% 0.00 in 204.00 W/m2
11:53 49.0 °F 38.9 °F 30.15 in SSW 6.9 mph 8.1 mph 68% 0.00 in 401.00 W/m2
11:58 49.7 °F 39.2 °F 30.15 in SW 6.9 mph 11.5 mph 67% 0.00 in 635.00 W/m2
12:03 50.4 °F 39.5 °F 30.15 in West 9.2 mph 11.5 mph 66% 0.00 in 287.00 W/m2
12:08 51.6 °F 40.6 °F 30.14 in SSW 5.8 mph 6.9 mph 66% 0.00 in 223.00 W/m2
12:13 51.6 °F 39.8 °F 30.14 in SSW 5.8 mph 6.9 mph 64% 0.00 in 221.00 W/m2
12:18 51.6 °F 39.4 °F 30.14 in West 10.3 mph 10.3 mph 63% 0.00 in 193.00 W/m2
12:23 51.5 °F 39.3 °F 30.14 in SW 5.8 mph 11.5 mph 63% 0.00 in 111.00 W/m2
Peotone Weather Data
Compliments of Weather Underground